Time;durP1;ratioP1;P1;durP2;ratioP2;P2;SDS_P1;SDS_P2;PMS_P1;PMS_P2;Temp;Humidity;BMP_temperature;BMP_pressure;BME280_temperature;BME280_humidity;BME280_pressure;Samples;Min_cycle;Max_cycle;Signal;HPM_P1;HPM_P2
2023/05/01 00:00:51;;;;;;;;;;;;;;;21.84;40.72;101565.19;7249843;19;156728;-54
2023/05/01 00:03:18;;;;;;;;;;;;;;;21.81;40.86;101560.16;7255365;19;153204;-54
2023/05/01 00:05:46;;;;;;;;;;;;;;;21.83;40.67;101565.50;7252957;19;153614;-54
2023/05/01 00:08:13;;;;;;;;;;;;;;;21.79;40.93;101565.25;7248740;19;155269;-54
2023/05/01 00:10:40;;;;;;;;;;;;;;;21.78;40.93;101551.50;7239213;19;160372;-54
2023/05/01 00:13:08;;;;;;;;;;;;;;;21.78;40.77;101555.16;7251543;19;154151;-54
2023/05/01 00:15:35;;;;;;;;;;;;;;;21.79;40.98;101555.97;7241646;19;153471;-54
2023/05/01 00:18:02;;;;;;;;;;;;;;;21.77;40.70;101556.28;7252477;19;154449;-54
2023/05/01 00:20:29;;;;;;;;;;;;;;;21.74;40.79;101546.47;7253506;19;156031;-54
2023/05/01 00:22:56;;;;;;;;;;;;;;;21.72;41.19;101550.72;7256198;19;153534;-54
2023/05/01 00:25:23;;;;;;;;;;;;;;;21.71;40.83;101549.88;7253617;19;153733;-54
2023/05/01 00:27:50;;;;;;;;;;;;;;;21.72;41.16;101545.94;7253385;19;154378;-55
2023/05/01 00:30:17;;;;;;;;;;;;;;;21.71;41.34;101541.44;7251299;19;153057;-54
2023/05/01 00:32:44;;;;;;;;;;;;;;;21.68;41.11;101539.25;7255163;19;154759;-54
2023/05/01 00:35:13;;;;;;;;;;;;;;;21.69;40.92;101537.25;7256241;19;154757;-54
2023/05/01 00:37:40;;;;;;;;;;;;;;;21.67;41.03;101531.94;7253163;19;153852;-54
2023/05/01 00:40:07;;;;;;;;;;;;;;;21.65;41.06;101525.78;7254559;19;154856;-54
2023/05/01 00:42:34;;;;;;;;;;;;;;;21.64;41.11;101523.28;7252522;19;152698;-53
2023/05/01 00:45:05;;;;;;;;;;;;;;;21.63;41.38;101522.44;7244046;19;154545;-54
2023/05/01 00:47:33;;;;;;;;;;;;;;;21.63;41.42;101514.00;7250078;19;154289;-54
2023/05/01 00:50:00;;;;;;;;;;;;;;;21.64;41.51;101517.66;7252835;19;154327;-54
2023/05/01 00:52:27;;;;;;;;;;;;;;;21.61;41.81;101507.84;7252605;19;152841;-53
2023/05/01 00:54:54;;;;;;;;;;;;;;;21.65;41.47;101520.16;7256768;19;154926;-54
2023/05/01 00:57:21;;;;;;;;;;;;;;;21.62;41.35;101508.69;7250968;19;153652;-54
2023/05/01 00:59:48;;;;;;;;;;;;;;;21.62;41.58;101503.88;7249677;19;154541;-54
2023/05/01 01:02:18;;;;;;;;;;;;;;;21.60;41.53;101497.72;7254825;19;153486;-54
2023/05/01 01:04:45;;;;;;;;;;;;;;;21.60;41.69;101497.72;7251763;19;154117;-53
2023/05/01 01:07:20;;;;;;;;;;;;;;;21.59;41.25;101493.25;7251363;19;155684;-54
2023/05/01 01:09:47;;;;;;;;;;;;;;;21.58;41.51;101491.56;7251655;19;155249;-53
2023/05/01 01:12:22;;;;;;;;;;;;;;;21.59;41.53;101489.59;7253843;19;153502;-54
2023/05/01 01:14:54;;;;;;;;;;;;;;;21.55;41.69;101485.72;7249054;19;156086;-54
2023/05/01 01:17:30;;;;;;;;;;;;;;;21.56;41.49;101487.41;7256666;19;154203;-54
2023/05/01 01:19:58;;;;;;;;;;;;;;;21.55;41.55;101480.09;7252221;19;153743;-54
2023/05/01 01:22:26;;;;;;;;;;;;;;;21.55;41.80;101478.13;7254726;19;153816;-54
2023/05/01 01:24:53;;;;;;;;;;;;;;;21.55;41.76;101474.47;7250786;19;155044;-54
2023/05/01 01:27:20;;;;;;;;;;;;;;;21.54;41.47;101476.44;7251335;19;155630;-53
2023/05/01 01:29:55;;;;;;;;;;;;;;;21.53;41.80;101471.13;7251767;19;153439;-54
2023/05/01 01:32:34;;;;;;;;;;;;;;;21.52;41.48;101472.28;7253524;19;154573;-54
2023/05/01 01:35:05;;;;;;;;;;;;;;;21.49;41.65;101465.25;7246344;19;156329;-54
2023/05/01 01:37:32;;;;;;;;;;;;;;;21.49;42.13;101461.59;7248867;19;151993;-54
2023/05/01 01:40:00;;;;;;;;;;;;;;;21.49;41.92;101459.63;7252690;19;155824;-54
2023/05/01 01:42:31;;;;;;;;;;;;;;;21.46;41.74;101451.81;7249935;19;153799;-54
2023/05/01 01:45:01;;;;;;;;;;;;;;;21.45;42.04;101447.31;7245115;19;154515;-53
2023/05/01 01:47:31;;;;;;;;;;;;;;;21.45;42.23;101447.31;7250101;19;154079;-54
2023/05/01 01:50:00;;;;;;;;;;;;;;;21.43;41.97;101446.81;7252305;19;154386;-54
2023/05/01 01:52:30;;;;;;;;;;;;;;;21.43;41.97;101441.19;7252172;19;154656;-53
2023/05/01 01:55:05;;;;;;;;;;;;;;;21.44;42.39;101436.41;7246442;19;152671;-54
2023/05/01 01:57:33;;;;;;;;;;;;;;;21.41;42.33;101440.63;7247328;19;154358;-54
2023/05/01 01:59:59;;;;;;;;;;;;;;;21.40;42.37;101432.50;7245695;19;154638;-53
2023/05/01 02:02:28;;;;;;;;;;;;;;;21.39;42.44;101422.41;7257291;19;154077;-53
2023/05/01 02:04:55;;;;;;;;;;;;;;;21.41;42.28;101426.59;7251513;19;153397;-54
2023/05/01 02:07:23;;;;;;;;;;;;;;;21.39;42.53;101420.44;7249667;19;153402;-54
2023/05/01 02:09:52;;;;;;;;;;;;;;;21.37;42.75;101411.47;7250356;19;154121;-54
2023/05/01 02:12:21;;;;;;;;;;;;;;;21.37;42.75;101416.25;7252192;19;153656;-53
2023/05/01 02:14:50;;;;;;;;;;;;;;;21.36;42.55;101414.56;7242287;19;154941;-54
2023/05/01 02:17:18;;;;;;;;;;;;;;;21.33;42.59;101418.00;7246913;19;153223;-54
2023/05/01 02:19:45;;;;;;;;;;;;;;;21.33;42.96;101418.84;7249625;19;154686;-54
2023/05/01 02:22:13;;;;;;;;;;;;;;;21.34;42.60;101417.69;7242126;19;154871;-58
2023/05/01 02:24:42;;;;;;;;;;;;;;;21.34;42.93;101416.84;7255223;19;153315;-54
2023/05/01 02:27:15;;;;;;;;;;;;;;;21.32;42.71;101407.88;7245640;19;155379;-54
2023/05/01 02:29:43;;;;;;;;;;;;;;;21.31;43.25;101404.22;7254744;19;152335;-55
2023/05/01 02:32:10;;;;;;;;;;;;;;;21.32;43.39;101410.69;7259230;19;153520;-56
2023/05/01 02:34:37;;;;;;;;;;;;;;;21.30;43.14;101403.38;7258652;19;153958;-54
2023/05/01 02:37:05;;;;;;;;;;;;;;;21.32;43.44;101400.28;7257840;19;153682;-53
2023/05/01 02:39:32;;;;;;;;;;;;;;;21.33;43.20;101401.13;7257251;19;153340;-54
2023/05/01 02:42:00;;;;;;;;;;;;;;;21.32;43.10;101391.84;7255122;19;154485;-56
2023/05/01 02:44:29;;;;;;;;;;;;;;;21.32;43.25;101402.25;7254712;19;153694;-53
2023/05/01 02:46:59;;;;;;;;;;;;;;;21.31;43.14;101395.81;7258175;19;154018;-54
2023/05/01 02:49:26;;;;;;;;;;;;;;;21.34;43.19;101395.22;7256636;19;153401;-53
2023/05/01 02:51:54;;;;;;;;;;;;;;;21.30;43.54;101399.78;7253223;19;154487;-53
2023/05/01 02:54:21;;;;;;;;;;;;;;;21.28;43.47;101393.59;7256105;19;153841;-54
2023/05/01 02:56:48;;;;;;;;;;;;;;;21.27;43.93;101401.19;7255933;19;153929;-54
2023/05/01 02:59:17;;;;;;;;;;;;;;;21.28;43.57;101400.06;7251803;19;153827;-54
2023/05/01 03:01:44;;;;;;;;;;;;;;;21.26;43.84;101402.31;7252118;19;156786;-54
2023/05/01 03:04:11;;;;;;;;;;;;;;;21.28;43.89;101402.03;7253717;19;153045;-54
2023/05/01 03:06:38;;;;;;;;;;;;;;;21.26;43.94;101404.28;7259271;19;154180;-53
2023/05/01 03:09:05;;;;;;;;;;;;;;;21.23;43.95;101402.94;7256141;19;153422;-54
2023/05/01 03:11:31;;;;;;;;;;;;;;;21.24;44.39;101398.16;7256062;19;154722;-54
2023/05/01 03:13:58;;;;;;;;;;;;;;;21.26;44.33;101395.88;7257130;19;155183;-54
2023/05/01 03:16:25;;;;;;;;;;;;;;;21.23;44.40;101390.88;7248504;19;154333;-54
2023/05/01 03:18:52;;;;;;;;;;;;;;;21.22;44.66;101392.84;7257922;19;154107;-54
2023/05/01 03:21:19;;;;;;;;;;;;;;;21.22;44.42;101394.81;7252666;19;154327;-54
2023/05/01 03:23:46;;;;;;;;;;;;;;;21.21;44.57;101387.53;7258055;19;153247;-54
2023/05/01 03:26:12;;;;;;;;;;;;;;;21.21;44.67;101384.72;7253334;19;156984;-54
2023/05/01 03:28:39;;;;;;;;;;;;;;;21.21;44.74;101390.34;7260995;19;155175;-54
2023/05/01 03:31:08;;;;;;;;;;;;;;;21.21;45.02;101384.72;7251005;19;154603;-54
2023/05/01 03:33:35;;;;;;;;;;;;;;;21.19;44.80;101382.22;7252878;19;154990;-54
2023/05/01 03:36:03;;;;;;;;;;;;;;;21.18;44.90;101383.34;7252359;19;154408;-54
2023/05/01 03:38:30;;;;;;;;;;;;;;;21.18;44.78;101383.34;7257512;19;154173;-54
2023/05/01 03:40:57;;;;;;;;;;;;;;;21.18;45.14;101385.31;7250632;19;153519;-54
2023/05/01 03:43:24;;;;;;;;;;;;;;;21.18;44.84;101385.31;7256908;19;153746;-54
2023/05/01 03:45:51;;;;;;;;;;;;;;;21.17;44.83;101386.44;7251692;19;152324;-54
2023/05/01 03:48:18;;;;;;;;;;;;;;;21.17;44.97;101390.09;7251714;19;153777;-54
2023/05/01 03:50:45;;;;;;;;;;;;;;;21.16;45.29;101385.63;7265183;19;155001;-54
2023/05/01 03:53:12;;;;;;;;;;;;;;;21.17;44.98;101384.47;7253372;19;153320;-54
2023/05/01 03:55:39;;;;;;;;;;;;;;;21.17;45.01;101386.44;7254050;19;154175;-54
2023/05/01 03:58:06;;;;;;;;;;;;;;;21.15;45.06;101392.38;7253738;19;153644;-54
2023/05/01 04:00:33;;;;;;;;;;;;;;;21.15;45.43;101395.19;7255333;19;154608;-53
2023/05/01 04:03:02;;;;;;;;;;;;;;;21.16;45.42;101391.25;7257713;19;153725;-53
2023/05/01 04:05:30;;;;;;;;;;;;;;;21.15;45.23;101392.38;7258249;19;153264;-54
2023/05/01 04:07:57;;;;;;;;;;;;;;;21.15;45.41;101395.19;7258514;19;154365;-53
2023/05/01 04:10:24;;;;;;;;;;;;;;;21.14;45.23;101387.06;7254159;19;153891;-53
2023/05/01 04:12:50;;;;;;;;;;;;;;;21.14;45.39;101387.06;7264033;19;154174;-53
2023/05/01 04:15:17;;;;;;;;;;;;;;;21.13;45.47;101394.66;7256743;19;154745;-53
2023/05/01 04:17:45;;;;;;;;;;;;;;;21.13;45.21;101393.81;7254576;19;153346;-54
2023/05/01 04:20:11;;;;;;;;;;;;;;;21.12;45.16;101392.13;7252943;19;154467;-54
2023/05/01 04:22:38;;;;;;;;;;;;;;;21.12;45.55;101392.13;7253736;19;153988;-54
2023/05/01 04:25:08;;;;;;;;;;;;;;;21.10;45.35;101389.59;7253035;19;152702;-54
2023/05/01 04:27:34;;;;;;;;;;;;;;;21.10;45.57;101398.03;7255912;19;154781;-53
2023/05/01 04:30:02;;;;;;;;;;;;;;;21.10;45.58;101389.59;7251263;19;152722;-53
2023/05/01 04:32:29;;;;;;;;;;;;;;;21.09;45.27;101395.53;7253922;19;153226;-53
2023/05/01 04:34:56;;;;;;;;;;;;;;;21.11;45.24;101401.69;7259821;19;156091;-54
2023/05/01 04:37:23;;;;;;;;;;;;;;;21.10;45.41;101394.38;7257115;19;156001;-53
2023/05/01 04:39:50;;;;;;;;;;;;;;;21.10;45.68;101397.19;7254851;19;154845;-53
2023/05/01 04:42:17;;;;;;;;;;;;;;;21.08;45.72;101399.47;7256587;19;153577;-57
2023/05/01 04:44:44;;;;;;;;;;;;;;;21.08;45.35;101396.66;7254261;19;154069;-53
2023/05/01 04:47:11;;;;;;;;;;;;;;;21.07;45.69;101389.38;7254051;19;153655;-53
2023/05/01 04:49:41;;;;;;;;;;;;;;;21.06;45.41;101388.53;7252357;19;153532;-54
2023/05/01 04:52:08;;;;;;;;;;;;;;;21.04;45.50;101393.59;7253566;19;154547;-54
2023/05/01 04:54:35;;;;;;;;;;;;;;;21.06;45.81;101399.78;7253211;19;152170;-54
2023/05/01 04:57:02;;;;;;;;;;;;;;;21.06;45.71;101401.75;7263339;19;153028;-55
2023/05/01 04:59:28;;;;;;;;;;;;;;;21.05;45.65;101405.69;7250781;19;153128;-54
2023/05/01 05:01:55;;;;;;;;;;;;;;;21.05;45.37;101391.63;7256823;19;154329;-54
2023/05/01 05:04:23;;;;;;;;;;;;;;;21.05;45.46;101400.91;7254519;19;154185;-54
2023/05/01 05:06:50;;;;;;;;;;;;;;;21.02;45.53;101393.09;7256292;19;153550;-54
2023/05/01 05:09:17;;;;;;;;;;;;;;;21.03;45.70;101405.97;7255541;19;154689;-54
2023/05/01 05:11:45;;;;;;;;;;;;;;;21.02;45.92;101400.69;7255615;19;154311;-54
2023/05/01 05:14:12;;;;;;;;;;;;;;;21.01;45.80;101401.81;7253859;19;153348;-54
2023/05/01 05:16:39;;;;;;;;;;;;;;;21.01;45.76;101410.25;7260965;19;153341;-54
2023/05/01 05:19:08;;;;;;;;;;;;;;;21.01;45.98;101407.44;7250645;19;153471;-54
2023/05/01 05:21:36;;;;;;;;;;;;;;;21.00;45.98;101405.75;7251250;19;153925;-54
2023/05/01 05:24:03;;;;;;;;;;;;;;;21.00;45.90;101420.63;7253826;19;152829;-54
2023/05/01 05:26:29;;;;;;;;;;;;;;;20.98;46.11;101414.50;7252713;19;154455;-54
2023/05/01 05:28:56;;;;;;;;;;;;;;;20.98;45.88;101408.03;7254713;19;154787;-54
2023/05/01 05:31:23;;;;;;;;;;;;;;;20.97;45.87;101411.97;7252883;19;153937;-54
2023/05/01 05:33:50;;;;;;;;;;;;;;;21.00;45.86;101417.00;7254713;19;155304;-54
2023/05/01 05:36:17;;;;;;;;;;;;;;;20.97;45.76;101421.25;7251636;19;152449;-55
2023/05/01 05:38:44;;;;;;;;;;;;;;;20.96;45.66;101413.94;7260859;19;153777;-54
2023/05/01 05:41:13;;;;;;;;;;;;;;;20.98;45.87;101416.47;7252813;19;153473;-54
2023/05/01 05:43:43;;;;;;;;;;;;;;;20.97;45.87;101409.16;7253939;19;154815;-54
2023/05/01 05:46:10;;;;;;;;;;;;;;;20.97;46.05;101420.41;7249241;19;156042;-53
2023/05/01 05:48:37;;;;;;;;;;;;;;;20.96;45.85;101419.56;7254476;19;152490;-54
2023/05/01 05:51:04;;;;;;;;;;;;;;;20.94;45.79;101415.41;7251022;19;154400;-54
2023/05/01 05:53:32;;;;;;;;;;;;;;;20.96;45.81;101410.31;7254571;19;155508;-54
2023/05/01 05:55:59;;;;;;;;;;;;;;;20.94;46.19;101421.03;7250862;19;152914;-54
2023/05/01 05:58:26;;;;;;;;;;;;;;;20.95;46.11;101423.50;7252953;19;155006;-53
2023/05/01 06:00:54;;;;;;;;;;;;;;;20.94;46.18;101412.59;7253482;19;156283;-54
2023/05/01 06:03:21;;;;;;;;;;;;;;;20.92;46.12;101412.88;7266695;19;153905;-54
2023/05/01 06:05:48;;;;;;;;;;;;;;;20.90;46.45;101411.50;7267244;19;152885;-53
2023/05/01 06:08:15;;;;;;;;;;;;;;;20.92;46.00;101412.88;7269148;19;153658;-54
2023/05/01 06:10:43;;;;;;;;;;;;;;;20.92;46.00;101415.69;7266379;19;152730;-54
2023/05/01 06:13:11;;;;;;;;;;;;;;;20.91;46.45;101414.00;7264738;19;155899;-53
2023/05/01 06:15:40;;;;;;;;;;;;;;;20.92;46.18;101420.47;7259530;19;155514;-54
2023/05/01 06:18:07;;;;;;;;;;;;;;;20.91;46.33;101416.81;7267341;19;153585;-54
2023/05/01 06:20:34;;;;;;;;;;;;;;;20.90;46.13;101422.72;7261103;19;154110;-54
2023/05/01 06:23:01;;;;;;;;;;;;;;;20.90;46.43;101422.72;7268732;19;153469;-54
2023/05/01 06:25:28;;;;;;;;;;;;;;;20.88;46.24;101419.41;7265369;19;155299;-53
2023/05/01 06:27:55;;;;;;;;;;;;;;;20.88;46.61;101417.44;7264705;19;153138;-53
2023/05/01 06:30:22;;;;;;;;;;;;;;;20.88;46.45;101425.00;7264068;19;154568;-54
2023/05/01 06:32:49;;;;;;;;;;;;;;;20.87;46.54;101415.75;7263123;19;153738;-53
2023/05/01 06:35:16;;;;;;;;;;;;;;;20.88;46.59;101425.00;7265785;19;153183;-53
2023/05/01 06:37:43;;;;;;;;;;;;;;;20.86;46.94;101426.16;7267895;19;154881;-53
2023/05/01 06:40:10;;;;;;;;;;;;;;;20.86;46.78;101423.34;7264133;19;152882;-53
2023/05/01 06:42:37;;;;;;;;;;;;;;;20.88;46.76;101419.41;7265844;19;153481;-53
2023/05/01 06:45:05;;;;;;;;;;;;;;;20.88;46.84;101419.41;7271044;19;153872;-53
2023/05/01 06:47:32;;;;;;;;;;;;;;;20.86;46.94;101416.88;7262433;19;152736;-53
2023/05/01 06:49:59;;;;;;;;;;;;;;;20.88;46.54;101423.03;7265395;19;154261;-53
2023/05/01 06:52:29;;;;;;;;;;;;;;;20.86;46.62;101416.88;7263184;19;155878;-53
2023/05/01 06:54:56;;;;;;;;;;;;;;;20.85;46.80;101413.22;7264779;19;152502;-53
2023/05/01 06:57:23;;;;;;;;;;;;;;;20.85;46.92;101409.56;7265493;19;153599;-53
2023/05/01 06:59:50;;;;;;;;;;;;;;;20.85;47.15;101415.19;7264111;19;153660;-53
2023/05/01 07:02:17;;;;;;;;;;;;;;;20.84;47.06;101417.19;7261894;19;153966;-53
2023/05/01 07:04:44;;;;;;;;;;;;;;;20.85;46.90;101421.66;7265822;19;153849;-53
2023/05/01 07:07:11;;;;;;;;;;;;;;;20.84;47.08;101422.81;7272557;19;153612;-53
2023/05/01 07:09:39;;;;;;;;;;;;;;;20.84;46.76;101416.34;7264347;19;154771;-53
2023/05/01 07:12:06;;;;;;;;;;;;;;;20.85;47.16;101420.81;7261970;19;153992;-56
2023/05/01 07:14:34;;;;;;;;;;;;;;;20.84;46.90;101425.63;7253629;19;153574;-54
2023/05/01 07:17:02;;;;;;;;;;;;;;;20.86;46.79;101422.50;7255397;19;154118;-54
2023/05/01 07:19:29;;;;;;;;;;;;;;;20.86;46.79;101420.53;7255784;19;154182;-53
2023/05/01 07:21:55;;;;;;;;;;;;;;;20.86;46.98;101422.50;7260002;19;154142;-53
2023/05/01 07:24:25;;;;;;;;;;;;;;;20.83;46.93;101418.31;7257379;19;154342;-53
2023/05/01 07:26:52;;;;;;;;;;;;;;;20.84;47.08;101436.84;7262523;19;155715;-53
2023/05/01 07:29:19;;;;;;;;;;;;;;;20.84;47.16;101438.81;7255336;19;153328;-53
2023/05/01 07:31:47;;;;;;;;;;;;;;;20.84;46.84;101436.84;7251881;19;153893;-53
2023/05/01 07:34:15;;;;;;;;;;;;;;;20.84;46.86;101439.66;7257416;19;154290;-55
2023/05/01 07:36:42;;;;;;;;;;;;;;;20.84;47.21;101448.09;7255650;19;152731;-54
2023/05/01 07:39:08;;;;;;;;;;;;;;;20.82;47.26;101447.53;7256871;19;153674;-54
2023/05/01 07:41:35;;;;;;;;;;;;;;;20.82;46.89;101444.72;7255930;19;152878;-53
2023/05/01 07:44:02;;;;;;;;;;;;;;;20.84;47.15;101447.25;7255725;19;154343;-53
2023/05/01 07:46:29;;;;;;;;;;;;;;;20.84;47.13;101452.88;7252213;19;155161;-53
2023/05/01 07:48:56;;;;;;;;;;;;;;;20.85;47.02;101452.56;7264699;19;153434;-53
2023/05/01 07:51:24;;;;;;;;;;;;;;;20.82;47.09;101449.50;7254919;19;153821;-53
2023/05/01 07:53:51;;;;;;;;;;;;;;;20.82;47.22;101461.59;7260970;19;152961;-53
2023/05/01 07:56:18;;;;;;;;;;;;;;;20.81;47.27;101453.44;7254495;19;153467;-53
2023/05/01 07:58:44;;;;;;;;;;;;;;;20.80;47.58;101461.03;7256757;19;154195;-53
2023/05/01 08:01:11;;;;;;;;;;;;;;;20.81;47.32;101459.91;7254765;19;153650;-54
2023/05/01 08:03:38;;;;;;;;;;;;;;;20.83;47.40;101459.63;7258399;19;155219;-53
2023/05/01 08:06:05;;;;;;;;;;;;;;;20.82;47.23;101449.50;7254157;19;154047;-53
2023/05/01 08:08:32;;;;;;;;;;;;;;;20.84;47.06;101452.88;7259752;19;153898;-53
2023/05/01 08:10:59;;;;;;;;;;;;;;;20.83;47.06;101449.22;7259149;19;155492;-53
2023/05/01 08:13:26;;;;;;;;;;;;;;;20.84;46.99;101461.28;7258004;19;154081;-53
2023/05/01 08:15:53;;;;;;;;;;;;;;;20.83;47.34;101460.44;7253223;19;153944;-53
2023/05/01 08:18:20;;;;;;;;;;;;;;;20.82;47.04;101458.78;7255883;19;154680;-54
2023/05/01 08:20:47;;;;;;;;;;;;;;;20.83;47.15;101462.44;7254526;19;152863;-54
2023/05/01 08:23:15;;;;;;;;;;;;;;;20.82;47.11;101455.13;7254974;19;152711;-54
2023/05/01 08:25:43;;;;;;;;;;;;;;;20.81;47.12;101457.09;7249498;19;153459;-54
2023/05/01 08:28:10;;;;;;;;;;;;;;;20.83;47.03;101462.44;7256766;19;152701;-55
2023/05/01 08:30:37;;;;;;;;;;;;;;;20.81;47.03;101454.28;7253721;19;153595;-54
2023/05/01 08:33:04;;;;;;;;;;;;;;;20.82;47.30;101461.59;7260565;19;155283;-54
2023/05/01 08:35:31;;;;;;;;;;;;;;;20.81;47.07;101459.06;7254268;19;154004;-54
2023/05/01 08:37:58;;;;;;;;;;;;;;;20.79;47.35;101462.19;7254615;19;153347;-54
2023/05/01 08:40:25;;;;;;;;;;;;;;;20.80;47.39;101458.22;7255253;19;153682;-54
2023/05/01 08:42:53;;;;;;;;;;;;;;;20.81;47.68;101462.72;7256140;19;155094;-54
2023/05/01 08:45:22;;;;;;;;;;;;;;;20.81;47.42;101464.69;7249851;19;154643;-54
2023/05/01 08:47:52;;;;;;;;;;;;;;;20.80;47.81;101460.22;7253839;19;153349;-55
2023/05/01 08:50:21;;;;;;;;;;;;;;;20.80;47.86;101463.84;7253038;19;154448;-54
2023/05/01 08:52:50;;;;;;;;;;;;;;;20.81;47.50;101459.91;7252164;19;155388;-54
2023/05/01 08:55:18;;;;;;;;;;;;;;;20.82;47.23;101463.56;7260733;19;154111;-54
2023/05/01 08:57:47;;;;;;;;;;;;;;;20.82;47.48;101460.75;7254681;19;152920;-54
2023/05/01 09:00:18;;;;;;;;;;;;;;;20.82;47.48;101464.38;7254523;19;151836;-54
2023/05/01 09:02:47;;;;;;;;;;;;;;;20.81;47.54;101459.06;7253838;19;154478;-54
2023/05/01 09:05:16;;;;;;;;;;;;;;;20.81;47.34;101471.13;7254397;19;153961;-54
2023/05/01 09:07:45;;;;;;;;;;;;;;;20.82;47.45;101470.00;7255636;19;152945;-54
2023/05/01 09:10:14;;;;;;;;;;;;;;;20.83;47.47;101470.84;7255940;19;154324;-54
2023/05/01 09:12:43;;;;;;;;;;;;;;;20.84;47.32;101464.09;7256033;19;153329;-54
2023/05/01 09:15:10;;;;;;;;;;;;;;;20.82;47.61;101472.81;7260683;19;153693;-54
2023/05/01 09:17:38;;;;;;;;;;;;;;;20.83;47.84;101474.50;7252031;19;153183;-54
2023/05/01 09:20:06;;;;;;;;;;;;;;;20.82;47.68;101472.81;7254547;19;151873;-54
2023/05/01 09:22:33;;;;;;;;;;;;;;;20.81;47.69;101473.09;7252545;19;153990;-54
2023/05/01 09:25:01;;;;;;;;;;;;;;;20.83;47.91;101480.13;7251182;19;153471;-54
2023/05/01 09:27:28;;;;;;;;;;;;;;;20.84;47.91;101483.75;7253434;19;153251;-53
2023/05/01 09:29:55;;;;;;;;;;;;;;;20.82;47.67;101483.22;7250161;19;153851;-54
2023/05/01 09:32:23;;;;;;;;;;;;;;;20.80;47.94;101486.31;7254456;19;155595;-55
2023/05/01 09:34:51;;;;;;;;;;;;;;;20.82;47.68;101484.06;7254969;19;153323;-54
2023/05/01 09:37:27;;;;;;;;;;;;;;;20.82;47.99;101484.06;7258723;19;154823;-54
2023/05/01 09:40:01;;;;;;;;;;;;;;;20.81;47.97;101482.38;7253936;19;154577;-54
2023/05/01 09:42:29;;;;;;;;;;;;;;;20.80;47.81;101485.50;7254764;19;153547;-54
2023/05/01 09:44:56;;;;;;;;;;;;;;;20.83;47.87;101487.69;7248990;19;153832;-54
2023/05/01 09:47:27;;;;;;;;;;;;;;;20.82;48.15;101480.41;7249966;19;154552;-54
2023/05/01 09:49:55;;;;;;;;;;;;;;;20.81;48.18;101492.75;7256539;19;153966;-54
2023/05/01 09:52:26;;;;;;;;;;;;;;;20.81;48.33;101499.22;7249610;19;153795;-54
2023/05/01 09:55:03;;;;;;;;;;;;;;;20.81;48.46;101493.59;7254830;19;153484;-54
2023/05/01 09:57:34;;;;;;;;;;;;;;;20.81;48.27;101493.59;7251828;19;152984;-54
2023/05/01 10:00:01;;;;;;;;;;;;;;;20.82;48.48;101500.06;7254749;19;154059;-54
2023/05/01 10:02:29;;;;;;;;;;;;;;;20.82;48.31;101497.25;7250447;19;153230;-54
2023/05/01 10:04:57;;;;;;;;;;;;;;;20.83;48.00;101504.56;7250313;19;154351;-54
2023/05/01 10:07:25;;;;;;;;;;;;;;;20.81;48.01;101498.38;7253717;19;154184;-54
2023/05/01 10:09:54;;;;;;;;;;;;;;;20.81;48.26;101504.00;7257770;19;153567;-54
2023/05/01 10:12:28;;;;;;;;;;;;;;;20.83;48.06;101512.97;7251118;19;153782;-53
2023/05/01 10:14:56;;;;;;;;;;;;;;;20.82;48.47;101500.91;7255714;19;153861;-53
2023/05/01 10:17:23;;;;;;;;;;;;;;;20.81;48.25;101498.38;7253693;19;153524;-53
2023/05/01 10:19:50;;;;;;;;;;;;;;;20.81;48.81;101499.22;7252021;19;154646;-53
2023/05/01 10:22:17;;;;;;;;;;;;;;;20.81;48.65;101502.03;7261467;19;153734;-54
2023/05/01 10:24:45;;;;;;;;;;;;;;;20.84;48.74;101503.44;7250652;19;153515;-55
2023/05/01 10:27:12;;;;;;;;;;;;;;;20.83;48.69;101499.78;7250048;19;153813;-53
2023/05/01 10:29:41;;;;;;;;;;;;;;;20.90;48.45;101502.22;7249307;19;153758;-53
2023/05/01 10:32:08;;;;;;;;;;;;;;;20.88;48.33;101506.47;7247587;19;153978;-53
2023/05/01 10:34:37;;;;;;;;;;;;;;;20.73;47.32;101502.69;7249760;19;154027;-53
2023/05/01 10:37:08;;;;;;;;;;;;;;;20.62;47.40;101500.28;7248621;19;154005;-53
2023/05/01 10:39:36;;;;;;;;;;;;;;;20.63;46.95;101493.50;7249027;19;154307;-57
2023/05/01 10:42:04;;;;;;;;;;;;;;;20.66;47.19;101492.94;7250364;19;154748;-53
2023/05/01 10:44:33;;;;;;;;;;;;;;;20.71;46.88;101495.69;7258173;19;154220;-53
2023/05/01 10:47:20;;;;;;;;;;;;;;;20.72;46.18;101492.56;7250167;19;152598;-53
2023/05/01 10:49:57;;;;;;;;;;;;;;;20.88;45.99;101493.25;7256661;19;153837;-53
2023/05/01 10:52:24;;;;;;;;;;;;;;;20.91;46.14;101494.63;7257297;19;154900;-53
2023/05/01 10:54:51;;;;;;;;;;;;;;;21.00;46.09;101492.84;7258061;19;154257;-53
2023/05/01 10:57:38;;;;;;;;;;;;;;;21.06;45.26;101491.66;7259609;19;155139;-53
2023/05/01 11:00:05;;;;;;;;;;;;;;;21.03;45.10;101493.06;7257690;19;154048;-58
2023/05/01 11:02:32;;;;;;;;;;;;;;;21.16;44.63;101495.22;7261529;19;153750;-53
2023/05/01 11:04:59;;;;;;;;;;;;;;;21.24;44.77;101483.31;7260286;19;154106;-53
2023/05/01 11:07:27;;;;;;;;;;;;;;;21.35;44.41;101474.75;7265557;19;154131;-53
2023/05/01 11:09:56;;;;;;;;;;;;;;;21.47;44.34;101483.59;7260817;19;154926;-53
2023/05/01 11:12:32;;;;;;;;;;;;;;;21.57;44.18;101475.00;7259150;19;155586;-53
2023/05/01 11:15:02;;;;;;;;;;;;;;;21.53;43.78;101463.50;7257607;19;154279;-53
2023/05/01 11:17:40;;;;;;;;;;;;;;;21.64;44.10;101467.88;7255142;19;154166;-53
2023/05/01 11:20:08;;;;;;;;;;;;;;;21.72;44.05;101474.78;7256781;19;156321;-53
2023/05/01 11:22:36;;;;;;;;;;;;;;;21.78;43.73;101472.72;7254009;19;153575;-53
2023/05/01 11:25:03;;;;;;;;;;;;;;;21.84;44.26;101474.34;7258687;19;154300;-53
2023/05/01 11:27:30;;;;;;;;;;;;;;;21.92;43.76;101479.28;7265882;19;154485;-53
2023/05/01 11:29:58;;;;;;;;;;;;;;;21.99;43.87;101476.91;7256513;19;154400;-53
2023/05/01 11:32:28;;;;;;;;;;;;;;;22.06;43.89;101469.78;7261227;19;153721;-53
2023/05/01 11:34:56;;;;;;;;;;;;;;;22.11;43.54;101474.50;7260465;19;154519;-53
2023/05/01 11:37:32;;;;;;;;;;;;;;;22.16;43.47;101468.78;7261047;19;154201;-54
2023/05/01 11:39:59;;;;;;;;;;;;;;;22.23;43.84;101477.66;7255063;19;153837;-54
2023/05/01 11:42:26;;;;;;;;;;;;;;;22.27;43.40;101475.06;7233309;19;153807;-54
2023/05/01 11:45:02;;;;;;;;;;;;;;;22.30;43.50;101474.47;7248752;19;155870;-54
2023/05/01 11:47:32;;;;;;;;;;;;;;;22.33;43.41;101471.88;7250917;19;153273;-54
2023/05/01 11:50:00;;;;;;;;;;;;;;;22.35;43.73;101477.19;7261850;19;152777;-53
2023/05/01 11:52:29;;;;;;;;;;;;;;;22.38;43.67;101471.78;7256862;19;154316;-53
2023/05/01 11:54:56;;;;;;;;;;;;;;;22.40;43.66;101475.09;7238877;19;152776;-53
2023/05/01 11:57:23;;;;;;;;;;;;;;;22.43;43.21;101482.97;7244799;19;154107;-53
2023/05/01 11:59:50;;;;;;;;;;;;;;;22.45;43.44;101477.84;7255176;19;157675;-54
2023/05/01 12:02:19;;;;;;;;;;;;;;;22.46;43.14;101481.50;7256875;19;154111;-54
2023/05/01 12:04:46;;;;;;;;;;;;;;;22.49;43.18;101483.69;7256405;19;153456;-54
2023/05/01 12:07:24;;;;;;;;;;;;;;;22.48;43.08;101477.25;7253530;19;153663;-54
2023/05/01 12:09:51;;;;;;;;;;;;;;;22.51;43.24;101482.25;7256424;19;153927;-53
2023/05/01 12:12:18;;;;;;;;;;;;;;;22.52;43.24;101481.09;7265244;19;153425;-54
2023/05/01 12:14:45;;;;;;;;;;;;;;;22.54;43.11;101489.22;7252768;19;154636;-54
2023/05/01 12:17:12;;;;;;;;;;;;;;;22.53;42.99;101491.19;7253768;19;153927;-54
2023/05/01 12:19:47;;;;;;;;;;;;;;;22.54;42.83;101497.66;7257254;19;153874;-54
2023/05/01 12:22:14;;;;;;;;;;;;;;;22.53;42.96;101493.22;7255044;19;154043;-53
2023/05/01 12:24:51;;;;;;;;;;;;;;;22.54;42.71;101498.50;7255282;19;154711;-55
2023/05/01 12:27:19;;;;;;;;;;;;;;;22.54;43.14;101492.03;7250853;19;155128;-53
2023/05/01 12:29:47;;;;;;;;;;;;;;;22.53;43.23;101485.56;7254921;19;154057;-54
2023/05/01 12:32:14;;;;;;;;;;;;;;;22.54;43.04;101480.78;7254604;19;154617;-54